createdAt,value
2022-11-16T00:02:11.376Z,2.38
2022-11-16T00:04:38.129Z,3.08
2022-11-16T00:07:04.928Z,2.70
2022-11-16T00:09:32.093Z,2.70
2022-11-16T00:11:59.997Z,2.45
2022-11-16T00:14:27.559Z,2.67
2022-11-16T00:16:53.933Z,2.40
2022-11-16T00:19:20.489Z,2.35
2022-11-16T00:21:46.805Z,2.70
2022-11-16T00:24:14.043Z,3.15
2022-11-16T00:26:40.799Z,3.25
2022-11-16T00:29:07.612Z,2.83
2022-11-16T00:31:33.927Z,2.60
2022-11-16T00:34:00.249Z,2.63
2022-11-16T00:36:26.558Z,3.05
2022-11-16T00:38:53.963Z,2.33
2022-11-16T00:41:20.356Z,3.13
2022-11-16T00:43:46.813Z,2.88
2022-11-16T00:46:13.133Z,3.03
2022-11-16T00:48:39.452Z,2.63
2022-11-16T00:51:06.927Z,2.80
2022-11-16T00:53:33.599Z,3.80
2022-11-16T00:55:59.950Z,3.05
2022-11-16T00:58:26.363Z,3.42
2022-11-16T01:00:52.777Z,2.72
2022-11-16T01:03:19.114Z,2.53
2022-11-16T01:05:45.470Z,2.45
2022-11-16T01:08:11.826Z,1.90
2022-11-16T01:10:39.453Z,1.90
2022-11-16T01:13:06.255Z,1.73
2022-11-16T01:15:32.720Z,1.60
2022-11-16T01:17:59.093Z,1.17
2022-11-16T01:20:26.868Z,1.67
2022-11-16T01:22:53.527Z,2.17
2022-11-16T01:25:20.094Z,2.00
2022-11-16T01:27:46.496Z,2.10
2022-11-16T01:30:13.791Z,2.38
2022-11-16T01:32:40.099Z,2.20
2022-11-16T01:35:06.879Z,2.13
2022-11-16T01:37:33.378Z,2.13
2022-11-16T01:39:59.803Z,2.20
2022-11-16T01:42:27.653Z,1.75
2022-11-16T01:44:56.156Z,2.15
2022-11-16T01:47:22.463Z,2.42
2022-11-16T01:49:51.353Z,2.58
2022-11-16T01:52:19.598Z,2.13
2022-11-16T01:54:47.144Z,2.05
2022-11-16T01:57:18.454Z,2.40
2022-11-16T01:59:46.148Z,2.78
2022-11-16T02:02:12.556Z,2.38
2022-11-16T02:04:38.975Z,2.50
2022-11-16T02:07:30.535Z,2.40
2022-11-16T02:10:04.095Z,2.50
2022-11-16T02:12:45.462Z,2.15
2022-11-16T02:15:11.760Z,2.50
2022-11-16T02:17:41.245Z,2.53
2022-11-16T02:20:16.750Z,2.60
2022-11-16T02:23:01.408Z,2.30
2022-11-16T02:25:34.985Z,2.40
2022-11-16T02:28:01.340Z,2.42
2022-11-16T02:30:27.663Z,2.45
2022-11-16T02:33:01.505Z,2.35
2022-11-16T02:35:38.065Z,2.50
2022-11-16T02:38:11.402Z,2.22
2022-11-16T02:40:39.930Z,2.60
2022-11-16T02:43:08.087Z,2.28
2022-11-16T02:45:37.146Z,2.08
2022-11-16T02:48:06.622Z,2.30
2022-11-16T02:50:33.342Z,2.88
2022-11-16T02:52:59.678Z,3.15
2022-11-16T02:55:27.409Z,2.10
2022-11-16T02:57:55.800Z,2.08
2022-11-16T03:00:23.961Z,2.03
2022-11-16T03:02:54.858Z,2.13
2022-11-16T03:05:21.431Z,1.58
2022-11-16T03:07:53.595Z,1.50
2022-11-16T03:10:40.587Z,2.08
2022-11-16T03:13:08.380Z,1.48
2022-11-16T03:15:36.884Z,1.45
2022-11-16T03:18:03.357Z,1.33
2022-11-16T03:20:31.516Z,1.88
2022-11-16T03:22:59.420Z,1.20
2022-11-16T03:25:29.451Z,1.10
2022-11-16T03:28:01.994Z,1.40
2022-11-16T03:30:30.030Z,1.48
2022-11-16T03:33:00.114Z,1.30
2022-11-16T03:35:27.804Z,1.27
2022-11-16T03:37:56.803Z,1.02
2022-11-16T03:40:24.081Z,1.20
2022-11-16T03:42:52.860Z,1.63
2022-11-16T03:45:19.503Z,1.05
2022-11-16T03:47:46.120Z,1.27
2022-11-16T03:50:12.615Z,1.48
2022-11-16T03:52:39.268Z,1.35
2022-11-16T03:55:05.701Z,1.38
2022-11-16T03:57:32.042Z,1.92
2022-11-16T03:59:58.513Z,1.45
2022-11-16T04:02:24.960Z,1.65
2022-11-16T04:05:09.857Z,1.75
2022-11-16T04:07:54.905Z,1.63
2022-11-16T04:10:40.114Z,1.90
2022-11-16T04:13:26.939Z,1.80
2022-11-16T04:16:28.656Z,1.65
2022-11-16T04:19:13.657Z,1.88
2022-11-16T04:22:00.548Z,1.70
2022-11-16T04:24:29.794Z,1.77
2022-11-16T04:27:17.166Z,1.60
2022-11-16T04:29:43.774Z,1.73
2022-11-16T04:32:28.952Z,1.90
2022-11-16T04:35:14.548Z,1.65
2022-11-16T04:37:50.208Z,2.28
2022-11-16T04:40:16.913Z,1.40
2022-11-16T04:42:43.409Z,1.80
2022-11-16T04:45:28.142Z,1.65
2022-11-16T04:47:54.509Z,1.80
2022-11-16T04:50:21.063Z,1.83
2022-11-16T04:52:47.379Z,1.67
2022-11-16T04:55:13.912Z,1.70
2022-11-16T04:57:40.416Z,2.10
2022-11-16T05:00:07.189Z,2.47
2022-11-16T05:02:33.580Z,2.00
2022-11-16T05:04:59.913Z,1.70
2022-11-16T05:07:26.530Z,2.03
2022-11-16T05:09:53.169Z,1.75
2022-11-16T05:12:21.309Z,1.77
2022-11-16T05:14:47.685Z,1.98
2022-11-16T05:17:14.698Z,1.98
2022-11-16T05:19:59.603Z,2.25
2022-11-16T05:22:25.913Z,1.80
2022-11-16T05:24:52.583Z,2.20
2022-11-16T05:27:19.537Z,1.70
2022-11-16T05:29:46.117Z,1.77
2022-11-16T05:32:13.160Z,1.60
2022-11-16T05:34:39.915Z,1.88
2022-11-16T05:37:06.310Z,1.60
2022-11-16T05:39:32.674Z,1.70
2022-11-16T05:41:58.976Z,1.23
2022-11-16T05:44:25.605Z,1.10
2022-11-16T05:46:52.037Z,1.60
2022-11-16T05:49:18.933Z,1.65
2022-11-16T05:51:46.007Z,1.42
2022-11-16T05:54:13.361Z,1.45
2022-11-16T05:56:40.008Z,1.80
2022-11-16T05:59:06.590Z,1.10
2022-11-16T06:01:33.037Z,0.90
2022-11-16T06:04:00.357Z,1.45
2022-11-16T06:06:27.031Z,1.20
2022-11-16T06:08:53.411Z,1.17
2022-11-16T06:11:19.823Z,1.38
2022-11-16T06:13:46.337Z,1.13
2022-11-16T06:16:12.991Z,0.95
2022-11-16T06:18:40.194Z,1.05
2022-11-16T06:21:07.060Z,1.10
2022-11-16T06:23:33.483Z,1.10
2022-11-16T06:25:59.984Z,1.30
2022-11-16T06:28:26.685Z,1.08
2022-11-16T06:30:53.010Z,0.95
2022-11-16T06:33:19.865Z,1.15
2022-11-16T06:35:46.221Z,1.08
2022-11-16T06:38:18.383Z,1.30
2022-11-16T06:40:46.188Z,1.00
2022-11-16T06:43:12.535Z,1.10
2022-11-16T06:45:38.880Z,1.73
2022-11-16T06:48:05.245Z,1.17
2022-11-16T06:50:31.579Z,1.00
2022-11-16T06:53:00.699Z,1.38
2022-11-16T06:55:28.075Z,1.20
2022-11-16T06:57:54.405Z,1.00
2022-11-16T07:00:20.718Z,1.20
2022-11-16T07:02:49.469Z,1.02
2022-11-16T07:05:15.938Z,1.40
2022-11-16T07:07:42.294Z,1.20
2022-11-16T07:10:08.920Z,1.90
2022-11-16T07:12:35.297Z,1.17
2022-11-16T07:15:01.626Z,1.30
2022-11-16T07:17:28.042Z,1.48
2022-11-16T07:19:54.367Z,1.05
2022-11-16T07:22:20.764Z,2.00
2022-11-16T07:24:47.096Z,1.40
2022-11-16T07:27:13.547Z,1.35
2022-11-16T07:29:39.949Z,1.20
2022-11-16T07:32:06.317Z,1.25
2022-11-16T07:34:32.635Z,1.40
2022-11-16T07:36:58.940Z,1.10
2022-11-16T07:39:25.243Z,1.27
2022-11-16T07:41:53.595Z,1.17
2022-11-16T07:44:20.382Z,1.52
2022-11-16T07:46:48.113Z,1.33
2022-11-16T07:49:15.478Z,1.13
2022-11-16T07:51:41.835Z,1.50
2022-11-16T07:54:08.388Z,1.30
2022-11-16T07:56:34.819Z,1.20
2022-11-16T07:59:02.584Z,1.60
2022-11-16T08:01:28.999Z,1.40
2022-11-16T08:03:55.538Z,1.27
2022-11-16T08:06:23.834Z,1.50
2022-11-16T08:08:55.141Z,1.40
2022-11-16T08:11:24.660Z,1.58
2022-11-16T08:13:51.022Z,1.60
2022-11-16T08:16:18.655Z,2.10
2022-11-16T08:18:45.414Z,0.88
2022-11-16T08:21:12.845Z,1.45
2022-11-16T08:23:42.182Z,1.85
2022-11-16T08:26:10.091Z,1.48
2022-11-16T08:28:37.183Z,2.10
2022-11-16T08:31:11.413Z,1.58
2022-11-16T08:33:37.758Z,2.40
2022-11-16T08:36:14.217Z,1.75
2022-11-16T08:38:41.016Z,1.83
2022-11-16T08:41:07.603Z,1.15
2022-11-16T08:43:34.059Z,1.65
2022-11-16T08:46:00.466Z,1.70
2022-11-16T08:48:26.859Z,1.58
2022-11-16T08:51:16.403Z,2.08
2022-11-16T08:53:41.103Z,1.55
2022-11-16T08:56:08.819Z,1.90
2022-11-16T08:58:36.166Z,1.50
2022-11-16T09:01:10.097Z,1.17
2022-11-16T09:03:37.944Z,1.60
2022-11-16T09:06:04.632Z,1.38
2022-11-16T09:08:32.071Z,1.35
2022-11-16T09:10:58.621Z,1.50
2022-11-16T09:13:25.414Z,1.83
2022-11-16T09:15:58.890Z,1.52
2022-11-16T09:18:25.386Z,1.48
2022-11-16T09:20:51.813Z,1.48
2022-11-16T09:23:23.834Z,1.63
2022-11-16T09:25:52.786Z,1.40
2022-11-16T09:28:19.652Z,1.30
2022-11-16T09:30:46.749Z,2.65
2022-11-16T09:33:13.385Z,1.50
2022-11-16T09:35:40.257Z,1.17
2022-11-16T09:38:06.947Z,1.45
2022-11-16T09:40:36.250Z,1.85
2022-11-16T09:43:02.664Z,1.63
2022-11-16T09:45:32.041Z,2.28
2022-11-16T09:48:02.220Z,1.80
2022-11-16T09:50:28.542Z,1.73
2022-11-16T09:52:56.365Z,1.48
2022-11-16T09:55:25.487Z,1.50
2022-11-16T09:57:54.427Z,2.20
2022-11-16T10:00:23.589Z,1.88
2022-11-16T10:03:02.490Z,2.20
2022-11-16T10:05:58.383Z,1.88
2022-11-16T10:08:33.953Z,1.90
2022-11-16T10:13:48.975Z,1.80
2022-11-16T10:16:33.613Z,1.60
2022-11-16T10:19:02.667Z,2.17
2022-11-16T10:21:28.997Z,2.38
2022-11-16T10:24:18.644Z,2.10
2022-11-16T10:26:50.434Z,2.58
2022-11-16T10:29:35.738Z,1.38
2022-11-16T10:32:18.189Z,1.53
2022-11-16T10:34:54.842Z,1.90
2022-11-16T10:37:21.930Z,2.30
2022-11-16T10:39:49.510Z,1.45
2022-11-16T10:42:22.595Z,1.80
2022-11-16T10:44:59.829Z,2.03
2022-11-16T10:47:46.778Z,1.50
2022-11-16T10:50:25.285Z,2.10
2022-11-16T10:52:51.638Z,1.50
2022-11-16T10:55:18.673Z,1.15
2022-11-16T10:58:14.449Z,2.45
2022-11-16T11:00:43.905Z,1.80
2022-11-16T11:03:11.853Z,1.50
2022-11-16T11:05:47.179Z,1.60
2022-11-16T11:08:13.582Z,1.80
2022-11-16T11:10:40.843Z,1.77
2022-11-16T11:13:10.410Z,1.80
2022-11-16T11:15:40.805Z,2.08
2022-11-16T11:18:25.668Z,1.83
2022-11-16T11:21:04.119Z,1.90
2022-11-16T11:23:30.557Z,2.10
2022-11-16T11:26:00.648Z,2.15
2022-11-16T11:28:32.020Z,1.80
2022-11-16T11:31:11.708Z,2.22
2022-11-16T11:33:40.941Z,2.40
2022-11-16T11:36:07.523Z,1.48
2022-11-16T11:38:35.373Z,2.13
2022-11-16T11:41:05.029Z,2.67
2022-11-16T11:43:34.307Z,1.20
2022-11-16T11:46:00.855Z,2.03
2022-11-16T11:48:41.341Z,2.00
2022-11-16T11:51:26.360Z,2.20
2022-11-16T11:53:52.681Z,2.30
2022-11-16T11:56:20.228Z,1.77
2022-11-16T11:58:48.075Z,2.10
2022-11-16T12:01:29.740Z,2.58
2022-11-16T12:04:02.124Z,1.80
2022-11-16T12:06:33.819Z,1.98
2022-11-16T12:09:19.139Z,1.88
2022-11-16T12:11:54.290Z,1.70
2022-11-16T12:14:20.670Z,1.85
2022-11-16T12:16:51.588Z,2.13
2022-11-16T12:19:37.289Z,3.42
2022-11-16T12:22:15.555Z,1.77
2022-11-16T12:24:44.993Z,1.63
2022-11-16T12:27:20.392Z,2.10
2022-11-16T12:29:46.708Z,1.75
2022-11-16T12:32:31.446Z,1.98
2022-11-16T12:35:16.743Z,1.83
2022-11-16T12:38:06.434Z,1.83
2022-11-16T12:40:32.858Z,2.17
2022-11-16T12:43:14.610Z,1.20
2022-11-16T12:45:49.847Z,1.65
2022-11-16T12:48:19.213Z,1.55
2022-11-16T12:50:51.819Z,1.08
2022-11-16T12:53:35.924Z,1.65
2022-11-16T12:56:11.567Z,1.83
2022-11-16T12:58:43.756Z,1.40
2022-11-16T13:01:12.964Z,1.83
2022-11-16T13:03:46.970Z,1.42
2022-11-16T13:06:16.615Z,1.40
2022-11-16T13:09:02.807Z,1.63
2022-11-16T13:11:31.010Z,1.50
2022-11-16T13:14:02.327Z,1.60
2022-11-16T13:16:29.017Z,1.60
2022-11-16T13:18:55.885Z,1.80
2022-11-16T13:21:31.727Z,1.20
2022-11-16T13:36:32.125Z,1.73
2022-11-16T13:38:58.627Z,1.42
2022-11-16T13:41:33.594Z,1.17
2022-11-16T13:44:00.336Z,1.40
2022-11-16T13:46:57.152Z,1.10
2022-11-16T13:49:23.611Z,1.35
2022-11-16T13:51:50.806Z,1.60
2022-11-16T13:57:32.363Z,1.23
2022-11-16T14:00:02.093Z,1.25
2022-11-16T14:02:33.431Z,0.90
2022-11-16T14:05:14.693Z,1.95
2022-11-16T14:07:47.252Z,1.58
2022-11-16T14:10:32.232Z,1.10
2022-11-16T14:12:59.159Z,1.30
2022-11-16T14:15:25.538Z,1.67
2022-11-16T14:17:55.014Z,1.20
2022-11-16T14:20:38.764Z,1.30
2022-11-16T14:23:20.409Z,1.45
2022-11-16T14:25:49.652Z,1.33
2022-11-16T14:28:15.996Z,1.25
2022-11-16T14:31:00.930Z,1.48
2022-11-16T14:33:34.800Z,1.70
2022-11-16T14:36:03.473Z,1.38
2022-11-16T14:38:33.928Z,1.27
2022-11-16T14:41:02.067Z,1.35
2022-11-16T14:43:31.452Z,1.20
2022-11-16T14:46:00.404Z,1.15
2022-11-16T14:48:27.862Z,1.13
2022-11-16T14:51:08.699Z,1.17
2022-11-16T14:53:36.914Z,1.50
2022-11-16T14:56:07.779Z,1.52
2022-11-16T14:58:35.815Z,1.23
2022-11-16T15:01:03.573Z,0.93
2022-11-16T15:03:31.690Z,1.70
2022-11-16T15:06:02.354Z,1.63
2022-11-16T15:08:55.126Z,1.27
2022-11-16T15:12:00.238Z,1.17
2022-11-16T15:14:32.029Z,1.40
2022-11-16T15:16:59.659Z,1.20
2022-11-16T15:19:28.939Z,1.55
2022-11-16T15:21:56.648Z,1.30
2022-11-16T15:24:32.071Z,1.55
2022-11-16T15:29:24.976Z,1.40
2022-11-16T15:31:51.373Z,1.70
2022-11-16T15:34:18.551Z,1.20
2022-11-16T15:36:45.280Z,1.27
2022-11-16T15:39:18.008Z,1.20
2022-11-16T15:41:44.774Z,1.20
2022-11-16T15:44:15.623Z,1.55
2022-11-16T15:46:44.412Z,2.35
2022-11-16T15:49:31.116Z,2.17
2022-11-16T15:51:58.627Z,1.75
2022-11-16T15:54:27.093Z,1.58
2022-11-16T15:56:55.749Z,1.40
2022-11-16T15:59:27.112Z,1.27
2022-11-16T16:01:53.974Z,1.30
2022-11-16T16:04:20.729Z,1.35
2022-11-16T16:06:49.205Z,1.65
2022-11-16T16:09:20.727Z,1.55
2022-11-16T16:11:47.215Z,1.58
2022-11-16T16:14:21.679Z,1.33
2022-11-16T16:16:52.482Z,1.40
2022-11-16T16:19:37.651Z,0.98
2022-11-16T16:22:05.220Z,1.60
2022-11-16T16:24:34.402Z,1.23
2022-11-16T16:27:00.798Z,1.58
2022-11-16T16:29:28.354Z,1.52
2022-11-16T16:31:55.533Z,1.13
2022-11-16T16:34:21.940Z,1.23
2022-11-16T16:36:49.765Z,1.13
2022-11-16T16:39:16.132Z,1.67
2022-11-16T16:41:42.566Z,1.88
2022-11-16T16:44:14.921Z,1.38
2022-11-16T16:46:41.296Z,1.48
2022-11-16T16:49:08.081Z,2.08
2022-11-16T16:51:34.521Z,1.60
2022-11-16T16:54:00.860Z,1.23
2022-11-16T16:56:27.356Z,1.85
2022-11-16T16:58:54.126Z,1.55
2022-11-16T17:01:20.645Z,1.33
2022-11-16T17:03:47.215Z,1.00
2022-11-16T17:06:14.044Z,1.13
2022-11-16T17:08:40.472Z,1.45
2022-11-16T17:11:06.874Z,1.50
2022-11-16T17:13:33.434Z,1.35
2022-11-16T17:16:03.636Z,1.10
2022-11-16T17:18:29.976Z,1.98
2022-11-16T17:21:02.355Z,1.08
2022-11-16T17:23:29.263Z,1.40
2022-11-16T17:25:55.698Z,1.70
2022-11-16T17:28:22.110Z,1.50
2022-11-16T17:30:48.479Z,1.83
2022-11-16T17:33:14.915Z,1.88
2022-11-16T17:35:41.654Z,1.90
2022-11-16T17:38:09.765Z,1.75
2022-11-16T17:40:36.280Z,1.50
2022-11-16T17:43:03.296Z,1.38
2022-11-16T17:45:29.617Z,1.60
2022-11-16T17:47:56.004Z,1.60
2022-11-16T17:50:22.308Z,2.05
2022-11-16T17:52:48.701Z,1.88
2022-11-16T17:55:15.187Z,1.70
2022-11-16T17:57:41.491Z,2.00
2022-11-16T18:00:08.184Z,1.42
2022-11-16T18:02:34.509Z,2.30
2022-11-16T18:05:00.864Z,1.58
2022-11-16T18:07:27.558Z,1.63
2022-11-16T18:09:53.931Z,1.98
2022-11-16T18:12:20.462Z,2.15
2022-11-16T18:15:06.283Z,1.65
2022-11-16T18:17:34.810Z,1.58
2022-11-16T18:20:01.223Z,1.80
2022-11-16T18:22:27.592Z,2.20
2022-11-16T18:24:53.886Z,1.73
2022-11-16T18:27:20.228Z,1.70
2022-11-16T18:29:46.557Z,1.83
2022-11-16T18:32:12.920Z,2.28
2022-11-16T18:34:39.251Z,1.92
2022-11-16T18:37:05.592Z,1.75
2022-11-16T18:39:33.082Z,1.70
2022-11-16T18:41:59.464Z,1.65
2022-11-16T18:44:25.876Z,1.73
2022-11-16T18:46:53.503Z,2.00
2022-11-16T18:49:19.817Z,1.55
2022-11-16T18:51:46.303Z,1.98
2022-11-16T18:54:12.854Z,1.98
2022-11-16T18:56:41.076Z,1.80
2022-11-16T18:59:07.524Z,1.88
2022-11-16T19:01:34.349Z,1.30
2022-11-16T19:04:00.854Z,1.77
2022-11-16T19:06:27.358Z,2.65
2022-11-16T19:08:56.392Z,1.65
2022-11-16T19:11:23.802Z,1.92
2022-11-16T19:14:07.704Z,1.73
2022-11-16T19:16:34.309Z,2.22
2022-11-16T19:19:03.716Z,1.35
2022-11-16T19:21:30.124Z,1.75
2022-11-16T19:23:56.909Z,2.20
2022-11-16T19:26:24.567Z,1.52
2022-11-16T19:28:51.639Z,1.85
2022-11-16T19:31:19.779Z,1.90
2022-11-16T19:33:46.357Z,1.48
2022-11-16T19:36:17.191Z,1.90
2022-11-16T19:38:44.368Z,1.80
2022-11-16T19:41:11.605Z,2.00
2022-11-16T19:43:38.588Z,1.45
2022-11-16T19:46:09.031Z,1.75
2022-11-16T19:48:35.509Z,2.00
2022-11-16T19:51:05.925Z,1.52
2022-11-16T19:53:32.917Z,2.00
2022-11-16T19:55:59.558Z,1.88
2022-11-16T19:58:26.058Z,2.17
2022-11-16T20:00:52.688Z,2.38
2022-11-16T20:03:19.138Z,1.92
2022-11-16T20:05:45.543Z,2.00
2022-11-16T20:08:12.137Z,1.70
2022-11-16T20:10:38.545Z,2.25
2022-11-16T20:13:04.980Z,1.52
2022-11-16T20:15:31.409Z,1.80
2022-11-16T20:17:57.772Z,2.28
2022-11-16T20:20:24.262Z,1.52
2022-11-16T20:22:50.867Z,1.55
2022-11-16T20:25:17.218Z,2.28
2022-11-16T20:27:43.593Z,2.15
2022-11-16T20:30:10.199Z,1.98
2022-11-16T20:32:36.728Z,1.90
2022-11-16T20:35:03.200Z,2.03
2022-11-16T20:37:29.538Z,1.75
2022-11-16T20:39:57.196Z,1.90
2022-11-16T20:42:23.954Z,2.30
2022-11-16T20:44:50.493Z,2.67
2022-11-16T20:47:16.870Z,2.00
2022-11-16T20:49:43.309Z,1.90
2022-11-16T20:52:09.741Z,1.98
2022-11-16T20:54:36.217Z,2.13
2022-11-16T20:57:02.587Z,1.80
2022-11-16T20:59:31.579Z,2.25
2022-11-16T21:01:57.917Z,1.60
2022-11-16T21:04:24.360Z,1.52
2022-11-16T21:06:50.800Z,2.35
2022-11-16T21:09:22.493Z,1.52
2022-11-16T21:12:08.155Z,1.27
2022-11-16T21:14:34.521Z,1.55
2022-11-16T21:17:02.035Z,1.33
2022-11-16T21:19:28.455Z,1.30
2022-11-16T21:21:54.822Z,1.27
2022-11-16T21:24:24.671Z,1.17
2022-11-16T21:26:52.317Z,1.30
2022-11-16T21:29:22.215Z,2.00
2022-11-16T21:31:48.641Z,1.30
2022-11-16T21:34:15.082Z,1.60
2022-11-16T21:36:41.471Z,1.55
2022-11-16T21:39:08.142Z,1.42
2022-11-16T21:41:34.663Z,1.60
2022-11-16T21:44:01.074Z,2.00
2022-11-16T21:46:27.535Z,1.40
2022-11-16T21:48:56.172Z,2.10
2022-11-16T21:51:24.855Z,1.52
2022-11-16T21:53:51.429Z,1.58
2022-11-16T21:56:18.926Z,1.75
2022-11-16T21:58:45.736Z,1.40
2022-11-16T22:01:12.745Z,1.35
2022-11-16T22:03:39.561Z,1.27
2022-11-16T22:06:25.503Z,1.35
2022-11-16T22:08:52.655Z,1.60
2022-11-16T22:11:22.005Z,1.33
2022-11-16T22:13:49.396Z,1.48
2022-11-16T22:16:16.451Z,1.20
2022-11-16T22:18:42.946Z,1.35
2022-11-16T22:21:09.829Z,1.50
2022-11-16T22:23:36.729Z,1.50
2022-11-16T22:26:14.730Z,1.45
2022-11-16T22:28:41.314Z,1.33
2022-11-16T22:31:11.815Z,1.10
2022-11-16T22:33:38.823Z,1.55
2022-11-16T22:36:07.942Z,1.40
2022-11-16T22:38:34.312Z,1.27
2022-11-16T22:41:01.995Z,1.45
2022-11-16T22:43:29.772Z,1.40
2022-11-16T22:45:59.980Z,1.35
2022-11-16T22:48:30.375Z,1.75
2022-11-16T22:51:07.059Z,1.50
2022-11-16T22:53:34.117Z,1.58
2022-11-16T22:56:08.030Z,1.27
2022-11-16T22:58:35.145Z,1.38
2022-11-16T23:01:01.793Z,1.30
2022-11-16T23:03:28.666Z,2.05
2022-11-16T23:05:55.186Z,1.58
2022-11-16T23:08:24.907Z,1.35
2022-11-16T23:11:16.677Z,1.10
2022-11-16T23:14:01.827Z,1.45
2022-11-16T23:16:28.223Z,1.45
2022-11-16T23:18:54.708Z,1.67
2022-11-16T23:21:40.163Z,1.70
2022-11-16T23:24:28.239Z,1.75
2022-11-16T23:27:13.922Z,1.52
2022-11-16T23:29:40.737Z,1.05
2022-11-16T23:32:07.109Z,1.08
2022-11-16T23:34:33.487Z,1.00
2022-11-16T23:37:06.234Z,1.52
2022-11-16T23:39:47.731Z,0.82
2022-11-16T23:42:33.074Z,1.30
2022-11-16T23:44:59.400Z,1.27
2022-11-16T23:47:25.720Z,1.20
2022-11-16T23:49:52.083Z,1.17
2022-11-16T23:52:18.467Z,1.00
2022-11-16T23:54:44.941Z,1.30
2022-11-16T23:57:11.360Z,1.10
2022-11-16T23:59:37.694Z,0.82
